Oxford, NC

1:18 AM EST on February 27, 2015 (GMT -0500)
Franklin County | Change Station
CLOSE
Current Station
Airport
Location: Louisburg,
Elevation: 371 ft
Nearby Weather Stations
Active Advisory: Winter Weather Advisory Active Notice: Record Report, Local Storm Report

Elev 371 ft 36.02 °N, 78.33 °W | Updated 23 minutes ago

Partly Cloudy
Partly Cloudy
27 °F
Feels Like 27 °F
N
0
Wind Variable Wind from North

Today
High -- | Low -- °F
--% Chance of Precip.
Yesterday
High -- | Low -- °F
Precip. -- in
6:47 AM 6:06 PM
Waxing Gibbous, 66% visible
Pressure 30.17 in
Visibility 5.0 miles
Clouds Clear
Dew Point 27 °F
Humidity 100%
Rainfall 0.00 in
Snow Depth Not available.
UV 0 out of 12
Pollen .80 out of 12
Air Quality Not available.
Flu Activity Not available.
METAR KLHZ 270555Z AUTO 00000KT 5SM BR CLR M03/M03 A3017 RMK AO2

More Conditions Fewer Conditions

Pressure 30.17 in
Visibility 5.0 miles
Clouds Clear
Dew Point 27 °F
Humidity 100%
Rainfall 0.00 in
Snow Depth Not available.
UV 0 out of 12
Pollen .80 out of 12
Air Quality Not available.
Flu Activity Not available.
METAR KLHZ 270555Z AUTO 00000KT 5SM BR CLR M03/M03 A3017 RMK AO2

More Conditions Fewer Conditions

10-Day Weather Forecast

Almanac

Astronomy

Feb. 27, 2015 Rise Set
Actual Time
Civil Twilight
Nautical Twilight
Astronomical Twilight
Moon
Length of Visible Light
Length of Day
Tomorrow will be .
, % of the Moon is Illuminated

Today's Extremes

State Highs State Lows

Community

WunderPhotos

Upload Photos

1,800,643 photos uploaded!

WunderBlogs® & News

Nearby

Air Quality

  Air Quality AQ Index Pollutant
Not available.

Snow Depth

Station Depth Elevation

Earthquake Activity

City Distance Mag. Time & Date
Minimum magnitude displayed is 2.5.

Coastal Water Temperatures

Place Temperature

Nearby Weather Stations

Winter Weather Advisory
Statement as of 11:01 PM EST on February 26, 2015

... Winter Weather Advisory remains in effect until 10 am EST
Friday...

* locations... the Piedmont and northern coastal plain including
The Triad... Triangle... Rocky Mount and surrounding areas.

* Hazard types... .black ice is expected tonight across much of
central North Carolina. In addition... a hard freeze of the snow
and ice.

* Timing... through late morning Friday.

* Impacts... freezing of meltwater will create areas of black ice.
The refreezing of the ice and snow pack will result in tricky
travel and walking conditions. Be extremely cautions on area
roads... streets... sidewalks... parking lots... steps and even
on interstates... especially the bridges... overpasses... and
ramps.

* Temperatures... temperatures will fall into the 20s through the
overnight and remain subfreezing through mid morning Friday.


Precautionary/preparedness actions...

The best way to avoid problems with black ice is to simply avoid
travel and walking tonight and Friday morning if possible. If you
must travel... take it slow and leave plenty of following distance.